Time;durP1;ratioP1;P1;durP2;ratioP2;P2;SDS_P1;SDS_P2;PMS_P1;PMS_P2;Temp;Humidity;BMP_temperature;BMP_pressure;BME280_temperature;BME280_humidity;BME280_pressure;Samples;Min_cycle;Max_cycle;Signal;HPM_P1;HPM_P2
2023/07/24 00:02:14;;;;;;;18.90;9.50;;;;;;;18.20;92.97;99473.59;673862;1266;139694;-79
2023/07/24 00:17:17;;;;;;;14.80;8.50;;;;;;;18.06;94.96;99476.31;671493;1266;138916;-78
2023/07/24 00:32:21;;;;;;;13.00;7.90;;;;;;;17.92;94.26;99462.23;670536;1267;139308;-78
2023/07/24 00:47:27;;;;;;;10.90;7.10;;;;;;;17.63;93.92;99468.41;671617;1263;139827;-79
2023/07/24 01:02:30;;;;;;;12.70;6.90;;;;;;;17.28;94.55;99462.01;672949;1265;140307;-78
2023/07/24 01:17:41;;;;;;;11.80;7.40;;;;;;;16.77;97.46;99462.17;672776;1276;139286;-78
2023/07/24 01:32:45;;;;;;;13.10;9.00;;;;;;;16.53;99.30;99462.69;672735;1265;139423;-79
2023/07/24 01:47:51;;;;;;;12.10;7.90;;;;;;;16.27;99.85;99466.13;671898;1262;138799;-77
2023/07/24 02:02:55;;;;;;;13.10;7.90;;;;;;;16.27;99.13;99459.98;671690;1261;139409;-78
2023/07/24 02:17:58;;;;;;;18.70;11.40;;;;;;;16.05;99.38;99462.41;674761;1262;138707;-77
2023/07/24 02:33:02;;;;;;;13.60;7.70;;;;;;;15.97;100.00;99454.66;675668;1259;139087;-78
2023/07/24 02:48:05;;;;;;;12.80;7.60;;;;;;;15.97;99.94;99445.70;674636;1262;139831;-77
2023/07/24 03:03:08;;;;;;;18.90;9.70;;;;;;;15.93;99.92;99446.14;677042;1262;139407;-79
2023/07/24 03:18:13;;;;;;;16.10;8.00;;;;;;;15.95;99.93;99454.32;672549;1262;139101;-78
2023/07/24 03:33:16;;;;;;;14.50;8.50;;;;;;;15.99;100.00;99454.02;675737;1262;139722;-79
2023/07/24 03:48:19;;;;;;;16.10;9.00;;;;;;;16.40;100.00;99460.98;673444;1258;139371;-78
2023/07/24 04:03:23;;;;;;;14.00;8.60;;;;;;;17.01;100.00;99468.64;677788;1263;139447;-78
2023/07/24 04:18:26;;;;;;;13.10;7.70;;;;;;;17.59;99.66;99470.85;676745;1261;140476;-78
2023/07/24 04:33:30;;;;;;;42.30;19.90;;;;;;;18.49;97.18;99471.63;673902;1261;139149;-79
2023/07/24 04:48:34;;;;;;;77.90;43.90;;;;;;;18.72;95.57;99477.96;679158;1259;139767;-79
2023/07/24 05:03:38;;;;;;;46.20;26.50;;;;;;;19.04;93.23;99479.73;679273;1274;139757;-79
2023/07/24 05:18:41;;;;;;;21.20;12.80;;;;;;;19.48;90.65;99474.83;675157;1257;139512;-79
2023/07/24 05:33:45;;;;;;;15.30;6.60;;;;;;;20.12;88.69;99479.29;675300;1262;139629;-78
2023/07/24 05:48:48;;;;;;;19.10;6.70;;;;;;;20.55;85.87;99485.25;675284;1262;139233;-78
2023/07/24 06:03:51;;;;;;;25.70;15.40;;;;;;;21.11;83.15;99494.91;675749;1262;141323;-79
2023/07/24 06:18:58;;;;;;;10.10;6.40;;;;;;;21.26;80.87;99497.91;674287;1259;139686;-79
2023/07/24 06:34:01;;;;;;;9.50;5.00;;;;;;;21.33;78.79;99495.63;676747;1261;141030;-79
2023/07/24 06:49:04;;;;;;;16.40;5.50;;;;;;;21.26;79.15;99511.73;678105;1262;138931;-79
2023/07/24 07:04:08;;;;;;;11.70;5.00;;;;;;;21.21;79.92;99515.73;673369;1260;139385;-80
2023/07/24 07:19:11;;;;;;;8.60;5.10;;;;;;;21.00;83.69;99499.92;676513;1262;138866;-79
2023/07/24 07:34:14;;;;;;;14.80;10.50;;;;;;;21.54;82.95;99519.10;676899;1262;140238;-80
2023/07/24 07:49:17;;;;;;;9.10;4.20;;;;;;;21.42;85.43;99518.46;675218;1257;140205;-79
2023/07/24 08:04:21;;;;;;;10.70;4.10;;;;;;;21.99;87.85;99504.34;674613;1261;138657;-79
2023/07/24 08:19:28;;;;;;;6.70;4.70;;;;;;;22.93;88.52;99489.64;675913;1262;139018;-78
2023/07/24 08:34:32;;;;;;;6.30;4.00;;;;;;;24.37;84.14;99492.91;677532;1262;140046;-79
2023/07/24 08:49:38;;;;;;;4.70;3.20;;;;;;;23.51;88.50;99487.26;677523;1276;139376;-80
2023/07/24 09:04:41;;;;;;;4.60;3.10;;;;;;;23.30;88.41;99462.33;675319;1271;138767;-79
2023/07/24 09:19:45;;;;;;;6.20;3.20;;;;;;;23.41;89.57;99452.98;674177;1269;139593;-79
2023/07/24 09:34:53;;;;;;;4.00;2.80;;;;;;;25.15;83.35;99427.48;678153;1262;140407;-79
2023/07/24 09:49:59;;;;;;;4.40;3.00;;;;;;;25.55;80.04;99405.80;679322;1263;139678;-80
2023/07/24 10:05:02;;;;;;;4.20;2.90;;;;;;;26.24;78.01;99380.33;677358;1259;137608;-80
2023/07/24 10:20:11;;;;;;;4.20;3.20;;;;;;;27.79;71.40;99367.39;673106;1261;138912;-79
2023/07/24 10:35:15;;;;;;;5.50;3.70;;;;;;;27.55;70.19;99357.34;675371;1261;138426;-79
2023/07/24 10:50:18;;;;;;;4.50;3.10;;;;;;;28.38;67.92;99329.58;674995;1263;139510;-80
2023/07/24 11:05:22;;;;;;;4.80;3.00;;;;;;;28.48;64.77;99314.98;675317;1262;138534;-80
2023/07/24 11:20:26;;;;;;;5.50;3.50;;;;;;;28.60;63.77;99291.30;674149;1270;138351;-81
2023/07/24 11:35:29;;;;;;;194.00;20.90;;;;;;;28.82;61.52;99281.98;680635;1262;138959;-82
2023/07/24 11:50:48;;;;;;;153.30;18.40;;;;;;;29.06;59.46;99263.02;676583;1264;138701;-79
2023/07/24 12:05:52;;;;;;;14.90;4.00;;;;;;;29.43;59.07;99246.72;678800;1270;139532;-79
2023/07/24 12:20:55;;;;;;;6.30;3.50;;;;;;;29.11;58.39;99237.23;675633;1278;138567;-80
2023/07/24 12:35:59;;;;;;;19.30;7.90;;;;;;;28.88;57.53;99227.31;674411;1270;138860;-81
2023/07/24 12:51:03;;;;;;;4.50;3.40;;;;;;;28.70;56.99;99201.77;675776;1264;139700;-80
2023/07/24 13:06:07;;;;;;;8.40;2.90;;;;;;;28.60;57.18;99182.37;676799;1257;138001;-80
2023/07/24 13:21:10;;;;;;;16.60;3.90;;;;;;;29.10;56.51;99157.77;680628;1258;139689;-80
2023/07/24 13:36:15;;;;;;;5.60;3.10;;;;;;;28.78;58.45;99141.77;679250;1263;140578;-80
2023/07/24 13:51:18;;;;;;;4.80;2.90;;;;;;;29.59;58.22;99120.71;675959;1258;138284;-80
2023/07/24 14:06:21;;;;;;;9.80;2.70;;;;;;;31.27;54.60;99093.05;677449;1263;139778;-81
2023/07/24 14:21:25;;;;;;;5.50;2.80;;;;;;;30.52;54.31;99080.70;677459;1258;138596;-80
2023/07/24 14:36:33;;;;;;;5.70;2.50;;;;;;;30.05;54.50;99072.50;675126;1258;138535;-78
2023/07/24 14:51:37;;;;;;;12.10;3.10;;;;;;;30.25;53.77;99064.11;678474;1257;137603;-80
2023/07/24 15:06:41;;;;;;;6.20;3.00;;;;;;;30.91;52.10;99042.12;673907;1264;138925;-80
2023/07/24 15:21:45;;;;;;;9.50;3.10;;;;;;;31.17;51.78;99017.27;675987;1257;138110;-81
2023/07/24 15:36:49;;;;;;;9.90;3.30;;;;;;;30.72;52.46;98994.94;676691;1264;138211;-81
2023/07/24 15:51:53;;;;;;;6.50;3.30;;;;;;;31.03;52.40;98967.02;676357;1261;138381;-81
2023/07/24 16:06:57;;;;;;;5.60;3.00;;;;;;;30.78;50.33;98945.88;682046;1262;138273;-79
2023/07/24 16:22:01;;;;;;;13.20;8.50;;;;;;;30.75;50.03;98920.49;677973;1273;137979;-80
2023/07/24 16:37:05;;;;;;;5.80;3.10;;;;;;;30.82;50.25;98907.73;676161;1260;138904;-81
2023/07/24 16:52:09;;;;;;;4.90;3.40;;;;;;;30.72;50.36;98898.44;674617;1260;138018;-80
2023/07/24 17:07:13;;;;;;;12.40;11.00;;;;;;;30.72;50.54;98853.23;677686;1256;137834;-79
2023/07/24 17:22:16;;;;;;;5.70;3.80;;;;;;;30.50;51.20;98814.15;674292;1257;138386;-80
2023/07/24 17:37:19;;;;;;;6.40;3.50;;;;;;;29.55;51.94;98811.01;675817;1260;139642;-79
2023/07/24 17:52:38;;;;;;;10.90;4.90;;;;;;;28.70;53.29;98818.16;678076;1261;137961;-79
2023/07/24 18:07:41;;;;;;;7.40;4.10;;;;;;;28.23;54.72;98810.18;676765;1258;139074;-78
2023/07/24 18:22:46;;;;;;;7.70;3.60;;;;;;;27.95;55.53;98815.92;677597;1259;137894;-78
2023/07/24 18:37:49;;;;;;;8.30;4.30;;;;;;;27.68;56.31;98809.23;678088;1259;138906;-79
2023/07/24 18:52:53;;;;;;;7.60;4.20;;;;;;;27.56;56.70;98791.92;677320;1262;138051;-77
2023/07/24 19:07:56;;;;;;;7.70;3.50;;;;;;;27.14;57.77;98772.11;674788;1261;138521;-78
2023/07/24 19:23:00;;;;;;;10.00;3.40;;;;;;;26.80;58.92;98785.27;676849;1262;138605;-77
2023/07/24 19:38:10;;;;;;;13.50;7.50;;;;;;;26.12;65.51;98778.23;678274;1261;138494;-78
2023/07/24 19:53:13;;;;;;;16.70;8.20;;;;;;;24.87;73.41;98746.63;677748;1261;138687;-78
2023/07/24 20:08:17;;;;;;;11.20;6.30;;;;;;;23.57;80.65;98741.05;675998;1258;185154;-78
2023/07/24 20:23:21;;;;;;;14.30;8.30;;;;;;;23.62;84.25;98761.91;681023;1262;138800;-77
2023/07/24 20:38:29;;;;;;;15.10;7.40;;;;;;;23.67;82.99;98736.88;678943;1262;138850;-77
2023/07/24 20:53:36;;;;;;;11.10;5.40;;;;;;;23.70;81.94;98718.81;677565;1261;139000;-78
2023/07/24 21:08:39;;;;;;;8.60;4.50;;;;;;;23.27;83.33;98691.91;672701;1260;139653;-78
2023/07/24 21:23:43;;;;;;;7.20;4.40;;;;;;;23.02;84.44;98695.83;676391;1261;139607;-79
2023/07/24 21:38:46;;;;;;;6.60;3.60;;;;;;;22.51;87.91;98697.78;676772;1261;139256;-78
2023/07/24 21:53:49;;;;;;;6.80;3.90;;;;;;;22.34;88.86;98695.61;678256;1262;139065;-78
2023/07/24 22:08:54;;;;;;;10.30;4.80;;;;;;;22.34;89.29;98694.60;674499;1257;141205;-78
2023/07/24 22:23:57;;;;;;;10.40;4.10;;;;;;;22.14;91.76;98727.48;679760;1261;138363;-77
2023/07/24 22:39:04;;;;;;;5.60;2.40;;;;;;;21.82;94.74;98716.41;677712;1263;139506;-76
2023/07/24 22:54:09;;;;;;;6.50;2.50;;;;;;;21.71;94.84;98703.30;676286;1266;139474;-78
2023/07/24 23:09:12;;;;;;;4.10;2.30;;;;;;;21.74;94.13;98711.08;677650;1262;140092;-78
2023/07/24 23:24:16;;;;;;;4.50;2.70;;;;;;;21.69;93.18;98716.08;676523;1262;139436;-79
2023/07/24 23:39:19;;;;;;;3.00;2.00;;;;;;;21.58;94.90;98710.77;675572;1274;139260;-78
2023/07/24 23:54:22;;;;;;;4.20;2.50;;;;;;;21.37;97.19;98705.99;676060;1262;139711;-78
